createdAt,value
2018-07-01T00:00:22.753Z,2.25
2018-07-01T00:02:52.510Z,4.58
2018-07-01T00:05:24.621Z,3.50
2018-07-01T00:07:53.985Z,2.55
2018-07-01T00:10:22.710Z,1.45
2018-07-01T09:03:35.119Z,2.77
2018-07-01T09:06:03.703Z,5.00
2018-07-01T09:08:32.397Z,0.50
2018-07-01T09:11:00.993Z,0.88
2018-07-01T09:13:29.513Z,1.60
2018-07-01T09:15:58.054Z,4.00
2018-07-01T09:18:26.739Z,1.72
2018-07-01T09:20:55.265Z,8.90
2018-07-01T09:23:23.867Z,1.00
2018-07-01T09:25:52.368Z,3.00
2018-07-01T09:28:21.676Z,2.12
2018-07-01T09:30:50.304Z,1.15
2018-07-01T09:33:20.194Z,3.30
2018-07-01T09:35:49.590Z,1.15
2018-07-01T09:38:18.262Z,3.17
2018-07-01T09:40:46.830Z,1.80
2018-07-01T09:43:15.420Z,0.75
2018-07-01T09:45:44.205Z,1.35
2018-07-01T09:48:13.510Z,1.35
2018-07-01T09:50:42.177Z,1.85
2018-07-01T09:53:10.809Z,1.32
2018-07-01T09:55:39.385Z,2.05
2018-07-01T09:58:08.676Z,0.88
2018-07-01T10:00:37.250Z,2.17
2018-07-01T10:03:05.814Z,0.72
2018-07-01T10:05:35.165Z,2.40
2018-07-01T10:08:03.799Z,0.90
2018-07-01T10:10:32.361Z,2.83
2018-07-01T10:13:00.877Z,2.98
2018-07-01T10:15:29.513Z,1.52
2018-07-01T10:17:58.042Z,1.85
2018-07-01T10:20:26.643Z,1.02
2018-07-01T10:22:56.098Z,1.25
2018-07-01T10:25:25.635Z,1.90
2018-07-01T10:27:54.265Z,0.50
2018-07-01T10:30:22.834Z,0.68
2018-07-01T10:32:51.363Z,2.40
2018-07-01T10:35:19.906Z,2.52
2018-07-01T10:37:48.503Z,1.50
2018-07-01T10:40:17.105Z,1.82
2018-07-01T10:42:45.711Z,2.83
2018-07-01T10:45:14.206Z,4.40
2018-07-01T10:47:42.757Z,1.98
2018-07-01T10:50:11.294Z,0.90
2018-07-01T10:52:39.811Z,1.65
2018-07-01T10:55:08.376Z,0.90
2018-07-01T10:57:37.091Z,1.52
2018-07-01T11:00:05.599Z,1.42
2018-07-01T11:02:34.125Z,1.70
2018-07-01T11:05:02.660Z,0.70
2018-07-01T11:07:31.294Z,6.45
2018-07-01T11:09:59.866Z,1.82
2018-07-01T11:12:28.376Z,4.72
2018-07-01T11:14:57.083Z,1.45
2018-07-01T11:17:25.695Z,0.90
2018-07-01T11:19:54.284Z,3.90
2018-07-01T11:22:22.850Z,4.67
2018-07-01T11:24:51.392Z,1.95
2018-07-01T11:27:20.137Z,2.33
2018-07-01T11:29:48.683Z,2.12
2018-07-01T11:32:17.185Z,1.42
2018-07-01T11:34:45.750Z,1.60
2018-07-01T11:37:14.341Z,3.40
2018-07-01T11:39:42.878Z,2.55
2018-07-01T11:42:11.433Z,1.70
2018-07-01T11:44:40.020Z,1.95
2018-07-01T11:47:08.559Z,3.77
2018-07-01T11:49:37.065Z,3.17
2018-07-01T11:52:06.023Z,2.22
2018-07-01T11:54:34.559Z,2.27
2018-07-01T11:57:03.276Z,2.85
2018-07-01T11:59:31.747Z,0.53
2018-07-01T12:02:00.389Z,1.80
2018-07-01T12:04:28.915Z,3.22
2018-07-01T12:06:57.423Z,1.50
2018-07-01T12:09:26.040Z,4.00
2018-07-01T12:11:54.652Z,2.05
2018-07-01T12:14:23.174Z,1.20
2018-07-01T12:16:51.692Z,1.50
2018-07-01T12:19:21.347Z,3.47
2018-07-01T12:21:49.922Z,2.50
2018-07-01T12:24:18.505Z,1.50
2018-07-01T12:26:47.059Z,3.27
2018-07-01T12:29:15.565Z,2.10
2018-07-01T12:31:44.355Z,0.72
2018-07-01T12:34:12.898Z,1.07
2018-07-01T12:36:41.486Z,4.40
2018-07-01T12:39:11.829Z,3.95
2018-07-01T12:41:40.376Z,1.65
2018-07-01T12:44:08.927Z,5.35
2018-07-01T12:46:37.479Z,1.80
2018-07-01T12:49:06.012Z,3.60
2018-07-01T12:51:34.501Z,1.62
2018-07-01T12:54:03.083Z,0.85
2018-07-01T12:56:31.651Z,1.45
2018-07-01T12:59:00.229Z,2.22
2018-07-01T13:01:28.750Z,1.30
2018-07-01T13:03:57.295Z,4.75
2018-07-01T13:06:26.050Z,1.32
2018-07-01T13:08:54.658Z,1.32
2018-07-01T13:11:23.343Z,4.75
2018-07-01T13:13:51.885Z,2.37
2018-07-01T13:16:20.508Z,3.12
2018-07-01T13:18:49.353Z,2.70
2018-07-01T13:21:17.879Z,4.60
2018-07-01T13:23:46.380Z,4.22
2018-07-01T13:26:14.904Z,2.35
2018-07-01T13:28:43.546Z,1.35
2018-07-01T13:31:12.074Z,0.93
2018-07-01T13:33:40.565Z,2.12
2018-07-01T13:36:09.090Z,1.67
2018-07-01T13:38:37.725Z,2.60
2018-07-01T13:41:06.794Z,1.47
2018-07-01T13:43:35.309Z,1.47
2018-07-01T13:46:03.805Z,5.58
2018-07-01T13:48:32.934Z,1.65
2018-07-01T13:51:02.769Z,2.37
2018-07-01T13:53:31.328Z,3.45
2018-07-01T13:55:59.883Z,10.90
2018-07-01T13:58:29.310Z,4.95
2018-07-01T14:00:57.908Z,5.67
2018-07-01T14:03:26.436Z,8.03
2018-07-01T14:05:54.975Z,13.65
2018-07-01T14:08:23.635Z,20.37
2018-07-01T14:10:52.198Z,30.27
2018-07-01T14:13:20.737Z,48.25
2018-07-01T14:15:49.236Z,81.40
2018-07-01T14:18:17.948Z,116.65
2018-07-01T14:20:46.580Z,138.55
2018-07-01T14:23:15.209Z,158.42
2018-07-01T14:25:43.794Z,183.70
2018-07-01T14:28:12.415Z,203.55
2018-07-01T14:30:40.990Z,211.00
2018-07-01T14:33:10.232Z,217.45
2018-07-01T14:35:38.757Z,220.48
2018-07-01T14:38:07.358Z,230.03
2018-07-01T14:40:36.683Z,233.57
2018-07-01T14:43:05.263Z,239.60
2018-07-01T14:45:33.842Z,230.25
2018-07-01T14:48:02.484Z,221.95
2018-07-01T14:50:31.046Z,220.37
2018-07-01T14:53:00.363Z,217.07
2018-07-01T14:55:28.951Z,227.32
2018-07-01T14:57:57.532Z,222.05
2018-07-01T15:00:26.093Z,227.60
2018-07-01T15:02:54.870Z,220.48
2018-07-01T15:05:24.052Z,226.07
2018-07-01T15:07:52.684Z,211.45
2018-07-01T15:10:21.199Z,195.15
2018-07-01T15:12:49.710Z,186.92
2018-07-01T15:15:19.049Z,182.43
2018-07-01T15:17:47.628Z,175.45
2018-07-01T15:20:16.716Z,167.10
2018-07-01T15:22:45.238Z,163.25
2018-07-01T15:25:13.789Z,165.32
2018-07-01T15:27:42.378Z,153.55
2018-07-01T15:30:11.577Z,148.78
2018-07-01T15:32:40.135Z,143.70
2018-07-01T15:35:08.635Z,138.52
2018-07-01T15:37:37.251Z,130.87
2018-07-01T15:40:05.831Z,130.47
2018-07-01T15:42:35.099Z,135.93
2018-07-01T15:45:03.728Z,134.22
2018-07-01T15:47:32.554Z,130.45
2018-07-01T15:50:01.097Z,130.45
2018-07-01T15:52:29.720Z,127.82
2018-07-01T15:54:58.549Z,125.27
2018-07-01T15:57:27.226Z,114.17
2018-07-01T15:59:56.438Z,103.10
2018-07-01T16:02:25.074Z,97.22
2018-07-01T16:04:53.699Z,96.82
2018-07-01T16:07:22.357Z,90.45
2018-07-01T16:09:50.930Z,84.52
2018-07-01T16:12:19.537Z,79.92
2018-07-01T16:14:49.907Z,76.55
2018-07-01T16:17:18.526Z,75.30
2018-07-01T16:19:48.195Z,67.22
2018-07-01T16:22:17.819Z,66.05
2018-07-01T16:27:02.003Z,62.70
2018-07-01T16:29:31.132Z,57.73
2018-07-01T16:32:00.562Z,54.40
2018-07-01T16:34:29.716Z,54.80
2018-07-01T16:36:59.613Z,50.50
2018-07-01T16:39:28.209Z,45.50
2018-07-01T16:41:57.636Z,41.90
2018-07-01T16:44:26.895Z,38.58
2018-07-01T16:46:55.536Z,35.40
2018-07-01T16:49:24.330Z,32.55
2018-07-01T16:51:53.564Z,33.15
2018-07-01T16:54:23.225Z,30.08
2018-07-01T16:56:51.936Z,29.85
2018-07-01T16:59:25.926Z,28.10
2018-07-01T17:01:56.474Z,27.75
2018-07-01T17:04:25.003Z,23.80
2018-07-01T17:06:56.251Z,21.85
2018-07-01T17:09:48.233Z,20.75
2018-07-01T17:12:16.827Z,19.75
2018-07-01T17:14:46.064Z,18.20
2018-07-01T17:17:14.252Z,15.40
2018-07-01T17:19:43.397Z,13.32
2018-07-01T17:22:12.084Z,13.40
2018-07-01T17:24:40.618Z,11.12
2018-07-01T17:27:11.208Z,10.93
2018-07-01T17:29:39.757Z,9.83
2018-07-01T17:32:13.755Z,8.30
2018-07-01T17:34:43.290Z,3.75
2018-07-01T17:37:11.882Z,3.00
2018-07-01T17:39:40.452Z,2.87
2018-07-01T17:42:08.952Z,1.12
2018-07-01T17:44:37.531Z,1.85
2018-07-01T17:47:06.230Z,1.25
2018-07-01T17:49:34.770Z,4.80
2018-07-01T17:52:03.310Z,1.05
2018-07-01T17:54:31.904Z,0.62
2018-07-01T17:57:00.582Z,1.65
2018-07-01T17:59:29.124Z,2.35
2018-07-01T18:01:57.675Z,2.27
2018-07-01T18:04:26.307Z,3.50
2018-07-01T18:06:54.857Z,2.98
2018-07-01T18:09:23.391Z,2.20
2018-07-01T18:11:52.547Z,1.65
2018-07-01T18:14:21.078Z,0.88
2018-07-01T18:16:49.611Z,0.80
2018-07-01T18:19:18.184Z,0.60
2018-07-01T18:22:04.615Z,1.70
2018-07-01T18:24:35.147Z,2.67
2018-07-01T18:26:43.900Z,3.22
2018-07-01T18:29:17.870Z,2.83
2018-07-01T18:31:41.380Z,2.05
2018-07-01T18:34:09.888Z,0.68
2018-07-01T18:36:38.421Z,2.60
2018-07-01T18:39:08.472Z,0.85
2018-07-01T18:41:37.239Z,2.22
2018-07-01T18:44:06.135Z,1.45
2018-07-01T18:46:35.057Z,4.12
2018-07-01T18:49:03.604Z,0.95
2018-07-01T18:51:32.107Z,1.72
2018-07-01T18:54:01.185Z,1.90
2018-07-01T18:56:29.787Z,1.05
2018-07-01T18:58:58.352Z,2.15
2018-07-01T19:01:27.668Z,1.50
2018-07-01T19:03:56.161Z,2.62
2018-07-01T19:06:25.191Z,2.95
2018-07-01T19:08:54.817Z,6.08
2018-07-01T19:11:23.956Z,3.12
2018-07-01T19:13:52.952Z,4.40
2018-07-01T19:16:21.533Z,5.37
2018-07-01T19:18:50.046Z,2.25
2018-07-01T19:21:18.590Z,1.77
2018-07-01T19:23:47.175Z,1.62
2018-07-01T19:26:15.726Z,3.20
2018-07-01T19:28:44.278Z,1.98
2018-07-01T19:31:12.815Z,2.33
2018-07-01T19:33:41.366Z,3.05
2018-07-01T19:36:09.958Z,2.87
2018-07-01T19:38:38.558Z,1.60
2018-07-01T19:41:07.050Z,1.65
2018-07-01T19:43:36.241Z,3.25
2018-07-01T19:46:04.966Z,3.92
2018-07-01T19:48:33.572Z,2.87
2018-07-01T19:51:02.092Z,1.50
2018-07-01T19:53:30.628Z,1.75
2018-07-01T19:55:59.809Z,1.67
2018-07-01T19:58:28.391Z,3.50
2018-07-01T20:00:56.911Z,2.50
2018-07-01T20:03:25.474Z,2.05
2018-07-01T20:05:54.753Z,2.55
2018-07-01T20:08:23.369Z,1.25
2018-07-01T20:10:55.917Z,2.08
2018-07-01T20:13:24.452Z,3.30
2018-07-01T20:15:53.133Z,3.30
2018-07-01T20:18:21.704Z,2.80
2018-07-01T20:20:52.194Z,1.30
2018-07-01T20:23:20.775Z,1.37
2018-07-01T20:25:49.295Z,2.12
2018-07-01T20:28:17.942Z,3.22
2018-07-01T20:30:46.476Z,2.20
2018-07-01T20:33:15.045Z,1.70
2018-07-01T20:35:43.751Z,1.32
2018-07-01T20:38:12.336Z,1.05
2018-07-01T20:40:40.870Z,1.75
2018-07-01T20:43:09.517Z,1.47
2018-07-01T20:45:38.059Z,2.70
2018-07-01T20:48:06.629Z,2.05
2018-07-01T20:50:35.688Z,0.90
2018-07-01T20:53:07.237Z,2.27
2018-07-01T20:55:35.786Z,1.77
2018-07-01T20:58:04.312Z,0.78
2018-07-01T21:00:32.889Z,3.15
2018-07-01T21:03:01.359Z,1.37
2018-07-01T21:05:29.967Z,1.20
2018-07-01T21:07:58.444Z,1.10
2018-07-01T21:10:26.951Z,0.80
2018-07-01T21:12:55.565Z,0.72
2018-07-01T21:15:24.051Z,2.98
2018-07-01T21:17:52.622Z,2.05
2018-07-01T21:20:21.135Z,2.75
2018-07-01T21:22:49.663Z,2.45
2018-07-01T21:25:18.199Z,2.50
2018-07-01T21:27:46.815Z,2.65
2018-07-01T21:30:15.305Z,2.12
2018-07-01T21:32:43.835Z,1.15
2018-07-01T21:35:12.359Z,1.30
2018-07-01T21:37:41.031Z,4.00
2018-07-01T21:40:09.569Z,3.40
2018-07-01T21:42:38.241Z,1.27
2018-07-01T21:45:07.514Z,0.90
2018-07-01T21:47:36.250Z,2.42
2018-07-01T21:50:05.370Z,2.15
2018-07-01T21:52:34.045Z,1.80
2018-07-01T21:55:02.720Z,2.70
2018-07-01T21:57:31.533Z,1.42
2018-07-01T22:00:00.231Z,2.40
2018-07-01T22:02:29.622Z,2.35
2018-07-01T22:04:59.228Z,1.30
2018-07-01T22:07:28.957Z,1.80
2018-07-01T22:09:57.619Z,1.62
2018-07-01T22:12:38.251Z,2.22
2018-07-01T22:15:22.475Z,1.20
2018-07-01T22:17:51.124Z,1.77
2018-07-01T22:20:21.693Z,1.47
2018-07-01T22:22:50.457Z,2.75
2018-07-01T22:25:19.044Z,1.98
2018-07-01T22:27:47.678Z,1.17
2018-07-01T22:30:16.288Z,2.10
2018-07-01T22:32:45.686Z,1.90
2018-07-01T22:35:14.220Z,0.93
2018-07-01T22:37:43.783Z,1.52
2018-07-01T22:40:12.421Z,2.90
2018-07-01T22:42:41.117Z,1.98
2018-07-01T22:45:10.324Z,1.55
2018-07-01T22:47:39.044Z,1.92
2018-07-01T22:50:07.958Z,1.92
2018-07-01T22:52:38.589Z,0.80
2018-07-01T22:55:07.187Z,1.50
2018-07-01T22:57:35.809Z,2.85
2018-07-01T23:00:05.143Z,0.42
2018-07-01T23:02:54.983Z,1.70
2018-07-01T23:05:24.019Z,4.45
2018-07-01T23:07:52.931Z,2.58
2018-07-01T23:10:23.406Z,2.33
2018-07-01T23:12:54.060Z,1.35
2018-07-01T23:15:23.289Z,1.25
2018-07-01T23:17:51.922Z,2.00
2018-07-01T23:20:21.506Z,0.50
2018-07-01T23:22:50.066Z,1.40
2018-07-01T23:25:19.966Z,0.90
2018-07-01T23:27:48.613Z,1.17
2018-07-01T23:30:18.098Z,2.52
2018-07-01T23:32:47.370Z,1.75
2018-07-01T23:35:17.381Z,1.75
2018-07-01T23:37:46.672Z,0.95
2018-07-01T23:40:15.296Z,1.95
2018-07-01T23:42:44.389Z,1.35
2018-07-01T23:45:15.382Z,1.57
